Time;durP1;ratioP1;P1;durP2;ratioP2;P2;SDS_P1;SDS_P2;PMS_P1;PMS_P2;Temp;Humidity;BMP_temperature;BMP_pressure;BME280_temperature;BME280_humidity;BME280_pressure;Samples;Min_cycle;Max_cycle;Signal;HPM_P1;HPM_P2
2024/02/22 00:01:25;;;;;;;10.2;4.3;;;;;;;4.17;81.34;;;;;
2024/02/22 00:12:24;;;;;;;10.2;4.3;;;;;;;4.05;82.76;;;;;
2024/02/22 00:22:25;;;;;;;10.2;4.3;;;;;;;4.05;83.55;;;;;
2024/02/22 00:33:25;;;;;;;6.1;2.6;;;;;;;4.06;83.85;;;;;
2024/02/22 00:43:24;;;;;;;6.1;2.6;;;;;;;4;83.71;;;;;
2024/02/22 00:54:24;;;;;;;6.1;2.6;;;;;;;3.75;83.63;;;;;
2024/02/22 01:04:24;;;;;;;8.5;3.3;;;;;;;3.57;83.56;;;;;
2024/02/22 01:15:24;;;;;;;8.5;3.3;;;;;;;3.31;84.93;;;;;
2024/02/22 01:26:24;;;;;;;8.5;3.3;;;;;;;3.18;85.12;;;;;
2024/02/22 01:36:25;;;;;;;9.6;4.1;;;;;;;3.15;86.29;;;;;
2024/02/22 01:47:24;;;;;;;9.6;4.1;;;;;;;3.16;85.47;;;;;
2024/02/22 01:57:25;;;;;;;9.6;4.1;;;;;;;3.01;85.56;;;;;
2024/02/22 02:08:25;;;;;;;8.6;4.3;;;;;;;2.84;85.6;;;;;
2024/02/22 02:19:25;;;;;;;8.6;4.3;;;;;;;2.69;86.29;;;;;
2024/02/22 02:29:25;;;;;;;10.7;5.2;;;;;;;2.68;87.02;;;;;
2024/02/22 02:40:25;;;;;;;10.7;5.2;;;;;;;3.55;86.46;;;;;
2024/02/22 02:50:25;;;;;;;10.7;5.2;;;;;;;3.97;84.47;;;;;
2024/02/22 03:01:24;;;;;;;4.3;2.2;;;;;;;4.35;82.25;;;;;
2024/02/22 03:11:25;;;;;;;4.3;2.2;;;;;;;4.61;80.83;;;;;
2024/02/22 03:22:24;;;;;;;4.3;2.2;;;;;;;4.92;79.12;;;;;
2024/02/22 03:32:25;;;;;;;4.7;2.2;;;;;;;5.11;78.28;;;;;
2024/02/22 03:43:25;;;;;;;4.7;2.2;;;;;;;5.28;77.88;;;;;
2024/02/22 03:53:25;;;;;;;4.7;2.2;;;;;;;5.19;77.88;;;;;
2024/02/22 04:04:25;;;;;;;13.9;6.3;;;;;;;5.05;78.03;;;;;
2024/02/22 04:14:25;;;;;;;13.9;6.3;;;;;;;4.68;78.77;;;;;
2024/02/22 04:25:25;;;;;;;13.9;6.3;;;;;;;4.71;79.12;;;;;
2024/02/22 04:36:25;;;;;;;18.2;9;;;;;;;4.93;78.45;;;;;
2024/02/22 04:47:25;;;;;;;18.2;9;;;;;;;5.06;78.11;;;;;
2024/02/22 04:58:25;;;;;;;18.2;9;;;;;;;5.19;77.69;;;;;
2024/02/22 05:08:25;;;;;;;8.5;4;;;;;;;4.63;78.27;;;;;
2024/02/22 05:19:25;;;;;;;8.5;4;;;;;;;4.32;80.15;;;;;
2024/02/22 05:30:25;;;;;;;20.2;10.5;;;;;;;4.35;80.79;;;;;
2024/02/22 05:41:25;;;;;;;20.2;10.5;;;;;;;4.43;80.63;;;;;
2024/02/22 05:51:25;;;;;;;20.2;10.5;;;;;;;4.36;81.76;;;;;
2024/02/22 06:02:25;;;;;;;16.5;7.7;;;;;;;4.39;82.67;;;;;
2024/02/22 06:13:25;;;;;;;16.5;7.7;;;;;;;4.54;82.76;;;;;
2024/02/22 06:23:25;;;;;;;16.5;7.7;;;;;;;4.74;82.35;;;;;
2024/02/22 06:34:25;;;;;;;14.1;7;;;;;;;4.9;82.05;;;;;
2024/02/22 06:45:25;;;;;;;14.1;7;;;;;;;5.3;81.44;;;;;
2024/02/22 06:55:26;;;;;;;14.1;7;;;;;;;5.63;80.91;;;;;
2024/02/22 07:05:25;;;;;;;11;6.7;;;;;;;5.75;81.31;;;;;
2024/02/22 07:15:25;;;;;;;11;6.7;;;;;;;6.25;80.02;;;;;
2024/02/22 07:26:25;;;;;;;11;6.7;;;;;;;6.71;80.63;;;;;
2024/02/22 07:36:25;;;;;;;18.1;9.3;;;;;;;7.29;79.18;;;;;
2024/02/22 07:47:25;;;;;;;18.1;9.3;;;;;;;7.69;78.76;;;;;
2024/02/22 07:57:25;;;;;;;18.1;9.3;;;;;;;7.94;77.95;;;;;
2024/02/22 08:08:25;;;;;;;17.7;11.5;;;;;;;8.55;70.85;;;;;
2024/02/22 08:19:25;;;;;;;17.7;11.5;;;;;;;9.34;66.17;;;;;
2024/02/22 08:30:25;;;;;;;7.1;3.6;;;;;;;10.05;61.99;;;;;
2024/02/22 08:41:25;;;;;;;7.1;3.6;;;;;;;10.68;64.14;;;;;
2024/02/22 08:52:25;;;;;;;7.1;3.6;;;;;;;11.19;58.52;;;;;
2024/02/22 09:02:25;;;;;;;5;2.4;;;;;;;11.49;57.56;;;;;
2024/02/22 09:13:25;;;;;;;5;2.4;;;;;;;11.59;57.31;;;;;
2024/02/22 09:23:25;;;;;;;5;2.4;;;;;;;12.03;56.96;;;;;
2024/02/22 09:33:25;;;;;;;7.5;3;;;;;;;12.47;57.68;;;;;
2024/02/22 09:43:25;;;;;;;7.5;3;;;;;;;12.35;56.58;;;;;
2024/02/22 09:54:25;;;;;;;7.5;3;;;;;;;12.46;56.35;;;;;
2024/02/22 10:04:25;;;;;;;5.4;3.3;;;;;;;12.25;57.35;;;;;
2024/02/22 10:15:27;;;;;;;5.4;3.3;;;;;;;12.48;57.56;;;;;
2024/02/22 10:25:25;;;;;;;5.4;3.3;;;;;;;12.77;56.1;;;;;
2024/02/22 10:36:26;;;;;;;5.7;3.3;;;;;;;13.08;54.07;;;;;
2024/02/22 10:47:25;;;;;;;5.7;3.3;;;;;;;13.18;54.06;;;;;
2024/02/22 10:58:25;;;;;;;6;3.4;;;;;;;13.44;54.31;;;;;
2024/02/22 11:09:25;;;;;;;6;3.4;;;;;;;13.64;53.36;;;;;
2024/02/22 11:19:26;;;;;;;6;3.4;;;;;;;13.91;51.8;;;;;
2024/02/22 11:29:25;;;;;;;5.2;3.1;;;;;;;13.69;51.59;;;;;
2024/02/22 11:39:27;;;;;;;5.2;3.1;;;;;;;13.95;53.57;;;;;
2024/02/22 11:50:25;;;;;;;5.2;3.1;;;;;;;13.86;52.94;;;;;
2024/02/22 12:00:25;;;;;;;5.2;2.7;;;;;;;13.9;51.54;;;;;
2024/02/22 12:11:25;;;;;;;5.2;2.7;;;;;;;14.04;50.33;;;;;
2024/02/22 12:22:25;;;;;;;5.2;2.7;;;;;;;14.42;50.21;;;;;
2024/02/22 12:32:25;;;;;;;5.5;3.1;;;;;;;14.39;49.24;;;;;
2024/02/22 12:42:25;;;;;;;5.5;3.1;;;;;;;14.18;49.71;;;;;
2024/02/22 12:53:25;;;;;;;5.5;3.1;;;;;;;14.04;49.61;;;;;
2024/02/22 13:04:25;;;;;;;7.7;4.6;;;;;;;13.94;51.28;;;;;
2024/02/22 13:14:25;;;;;;;7.7;4.6;;;;;;;13.81;50.81;;;;;
2024/02/22 13:25:25;;;;;;;7.7;4.6;;;;;;;13.71;50.74;;;;;
2024/02/22 13:35:25;;;;;;;6.9;4.3;;;;;;;13.24;51.25;;;;;
2024/02/22 13:45:25;;;;;;;6.9;4.3;;;;;;;13.02;51.19;;;;;
2024/02/22 13:56:25;;;;;;;6.9;4.3;;;;;;;13.03;50.45;;;;;
2024/02/22 14:06:25;;;;;;;5.3;2.9;;;;;;;12.89;51.14;;;;;
2024/02/22 14:17:26;;;;;;;5.3;2.9;;;;;;;12.53;51.64;;;;;
2024/02/22 14:28:25;;;;;;;5.7;3.4;;;;;;;12.37;54.32;;;;;
2024/02/22 14:38:25;;;;;;;5.7;3.4;;;;;;;12;54.51;;;;;
2024/02/22 14:48:25;;;;;;;5.7;3.4;;;;;;;11.7;55.05;;;;;
2024/02/22 14:59:25;;;;;;;6.8;3.9;;;;;;;11.43;56.31;;;;;
2024/02/22 15:09:26;;;;;;;6.8;3.9;;;;;;;11.11;56.53;;;;;
2024/02/22 15:19:25;;;;;;;6.8;3.9;;;;;;;10.85;58.09;;;;;
2024/02/22 15:30:25;;;;;;;7.4;4.4;;;;;;;10.53;58.71;;;;;
2024/02/22 15:40:25;;;;;;;7.4;4.4;;;;;;;10.3;59.69;;;;;
2024/02/22 15:50:25;;;;;;;7.4;4.4;;;;;;;10.1;60.89;;;;;
2024/02/22 16:01:25;;;;;;;7.2;4;;;;;;;9.91;62.2;;;;;
2024/02/22 16:11:25;;;;;;;7.2;4;;;;;;;9.75;61.99;;;;;
2024/02/22 16:22:25;;;;;;;7.2;4;;;;;;;9.76;62.68;;;;;
2024/02/22 16:32:25;;;;;;;6.5;3.5;;;;;;;9.59;62.6;;;;;
2024/02/22 16:42:25;;;;;;;6.5;3.5;;;;;;;9.64;63.24;;;;;
2024/02/22 16:53:27;;;;;;;6.5;3.5;;;;;;;9.55;64;;;;;
2024/02/22 17:03:25;;;;;;;10;5.2;;;;;;;9.34;64.59;;;;;
2024/02/22 17:14:25;;;;;;;10;5.2;;;;;;;9.26;65.24;;;;;
2024/02/22 17:25:25;;;;;;;10;5.2;;;;;;;9.12;65.4;;;;;
2024/02/22 17:35:28;;;;;;;24.4;15.7;;;;;;;9.01;66;;;;;
2024/02/22 17:46:25;;;;;;;24.4;15.7;;;;;;;8.91;66.84;;;;;
2024/02/22 17:56:25;;;;;;;24.4;15.7;;;;;;;8.84;67.31;;;;;
2024/02/22 18:07:25;;;;;;;13.8;8.2;;;;;;;9.01;66.21;;;;;
2024/02/22 18:17:26;;;;;;;13.8;8.2;;;;;;;9.06;66.18;;;;;
2024/02/22 18:28:25;;;;;;;8.4;4.5;;;;;;;9.08;66.2;;;;;
2024/02/22 18:39:26;;;;;;;8.4;4.5;;;;;;;9.26;65.74;;;;;
2024/02/22 18:49:25;;;;;;;8.4;4.5;;;;;;;9.37;65.94;;;;;
2024/02/22 19:00:25;;;;;;;6.3;3.3;;;;;;;9.4;65.35;;;;;
2024/02/22 19:10:25;;;;;;;6.3;3.3;;;;;;;9.43;65.45;;;;;
2024/02/22 19:21:25;;;;;;;6.3;3.3;;;;;;;9.42;66.46;;;;;
2024/02/22 19:31:25;;;;;;;5.3;3;;;;;;;9.46;65.64;;;;;
2024/02/22 19:42:25;;;;;;;5.3;3;;;;;;;9.48;67.12;;;;;
2024/02/22 19:52:25;;;;;;;5.3;3;;;;;;;9.59;66.28;;;;;
2024/02/22 20:03:25;;;;;;;5.1;2.4;;;;;;;9.58;67.29;;;;;
2024/02/22 20:13:26;;;;;;;5.1;2.4;;;;;;;9.57;66.98;96931.666666667;;;;
2024/02/22 20:23:25;;;;;;;5.1;2.4;;;;;;;9.61;67.26;96905;;;;
2024/02/22 20:33:26;;;;;;;5.6;2.5;;;;;;;9.7;66.75;96901.666666667;;;;
2024/02/22 20:43:25;;;;;;;5.6;2.5;;;;;;;9.58;68.04;96901.666666667;;;;
2024/02/22 20:53:27;;;;;;;5.6;2.5;;;;;;;9.61;67.72;96893.333333333;;;;
2024/02/22 21:03:27;;;;;;;4.4;2;;;;;;;9.58;68.07;96880;;;;
2024/02/22 21:14:25;;;;;;;4.4;2;;;;;;;9.57;67.86;96873.333333333;;;;
2024/02/22 21:24:25;;;;;;;4.4;2;;;;;;;9.55;68.02;96868.333333333;;;;
2024/02/22 21:34:25;;;;;;;2.9;1.6;;;;;;;9.61;67.96;96861.666666667;;;;
2024/02/22 21:45:27;;;;;;;2.9;1.6;;;;;;;9.61;67.7;96858.333333333;;;;
2024/02/22 21:55:25;;;;;;;2.9;1.6;;;;;;;9.63;67.88;96848.333333333;;;;
2024/02/22 22:06:25;;;;;;;4.4;2.1;;;;;;;9.74;67.66;96841.666666667;;;;
2024/02/22 22:17:25;;;;;;;4.4;2.1;;;;;;;9.74;67.64;96836.666666667;;;;
2024/02/22 22:27:25;;;;;;;4.4;2.1;;;;;;;9.73;67.25;96848.333333333;;;;
2024/02/22 22:37:25;;;;;;;3.3;1.5;;;;;;;9.69;67.46;96850;;;;
2024/02/22 22:48:25;;;;;;;3.3;1.5;;;;;;;9.66;68.43;96856.666666667;;;;
2024/02/22 22:59:25;;;;;;;4.7;1.8;;;;;;;9.72;68.42;96878.333333333;;;;
2024/02/22 23:10:26;;;;;;;4.7;1.8;;;;;;;10;67.49;96873.333333333;;;;
2024/02/22 23:21:25;;;;;;;4.7;1.8;;;;;;;10.16;67.01;96865;;;;
2024/02/22 23:32:25;;;;;;;2.2;0.9;;;;;;;10.12;67.74;96855;;;;
2024/02/22 23:42:25;;;;;;;2.2;0.9;;;;;;;10.2;67.49;96838.333333333;;;;
2024/02/22 23:53:26;;;;;;;2.2;0.9;;;;;;;10.29;67.17;96846.666666667;;;;
